Time;durP1;ratioP1;P1;durP2;ratioP2;P2;SDS_P1;SDS_P2;PMS_P1;PMS_P2;Temp;Humidity;BMP_temperature;BMP_pressure;BME280_temperature;BME280_humidity;BME280_pressure;Samples;Min_cycle;Max_cycle;Signal;HPM_P1;HPM_P2
2023/03/20 00:00:47;;;;;;;;;2.00;2.00;;;;;8.78;74.82;101069.56;4996768;28;45347;-70
2023/03/20 00:03:13;;;;;;;;;0.00;0.00;;;;;8.66;74.81;101067.28;4997003;28;45406;-71
2023/03/20 00:05:39;;;;;;;;;0.50;0.50;;;;;8.75;74.36;101077.22;4996668;28;45378;-70
2023/03/20 00:08:06;;;;;;;;;0.75;0.00;;;;;8.77;74.39;101075.56;4996573;28;45477;-73
2023/03/20 00:10:37;;;;;;;;;0.25;0.00;;;;;8.69;74.81;101079.53;4996521;28;45339;-72
2023/03/20 00:13:05;;;;;;;;;0.00;0.00;;;;;8.68;74.15;101070.84;4996404;28;45430;-72
2023/03/20 00:15:38;;;;;;;;;0.00;0.00;;;;;8.73;73.12;101074.56;4996223;28;45383;-72
2023/03/20 00:18:19;;;;;;;;;0.00;0.00;;;;;8.73;73.26;101073.66;4996940;28;45422;-71
2023/03/20 00:20:49;;;;;;;;;0.00;0.00;;;;;8.71;73.13;101077.91;4996462;28;45320;-73
2023/03/20 00:23:16;;;;;;;;;0.00;0.00;;;;;8.66;73.90;101077.72;4996513;28;45524;-73
2023/03/20 00:25:44;;;;;;;;;0.00;0.00;;;;;8.65;74.47;101088.03;4996359;28;46197;-72
2023/03/20 00:28:37;;;;;;;;;1.50;1.50;;;;;8.58;74.32;101094.69;4996587;28;45530;-74
2023/03/20 00:31:05;;;;;;;;;1.75;1.00;;;;;8.52;75.01;101086.59;4992358;28;45598;-73
2023/03/20 00:33:31;;;;;;;;;0.75;0.00;;;;;8.43;74.66;101076.63;4993875;28;45583;-72
2023/03/20 00:35:57;;;;;;;;;0.00;0.00;;;;;8.36;74.46;101084.94;4996048;28;45867;-73
2023/03/20 00:38:24;;;;;;;;;0.00;0.00;;;;;8.34;74.68;101087.47;4995973;28;45440;-73
2023/03/20 00:40:50;;;;;;;;;1.00;0.00;;;;;8.25;75.73;101092.22;4995956;28;45374;-72
2023/03/20 00:43:16;;;;;;;;;0.75;0.25;;;;;8.21;75.61;101099.81;4995789;28;45360;-70
2023/03/20 00:45:45;;;;;;;;;0.50;0.50;;;;;8.22;75.24;101099.91;4996623;28;46033;-72
2023/03/20 00:48:13;;;;;;;;;0.00;0.00;;;;;8.21;75.62;101095.50;4996067;28;45398;-74
2023/03/20 00:50:39;;;;;;;;;0.75;0.00;;;;;8.21;75.68;101105.03;4995048;28;45719;-74
2023/03/20 00:53:05;;;;;;;;;0.00;0.00;;;;;8.15;75.68;101090.88;4996074;28;45460;-74
2023/03/20 00:55:30;;;;;;;;;0.00;0.00;;;;;8.25;75.07;101099.16;4995713;28;45371;-73
2023/03/20 00:57:59;;;;;;;;;0.00;0.00;;;;;8.26;74.58;101093.13;4996330;28;45483;-73
2023/03/20 01:00:41;;;;;;;;;0.00;0.00;;;;;8.25;75.04;101094.81;4988793;28;45360;-73
2023/03/20 01:03:18;;;;;;;;;0.00;0.00;;;;;8.27;74.91;101110.53;4995992;28;45383;-74
2023/03/20 01:05:44;;;;;;;;;0.00;0.00;;;;;8.16;75.03;101100.50;4995901;28;46208;-74
2023/03/20 01:08:17;;;;;;;;;0.00;0.00;;;;;8.13;75.30;101108.13;4995672;28;45393;-73
2023/03/20 01:10:45;;;;;;;;;0.00;0.00;;;;;8.16;74.54;101108.31;4993422;28;45492;-73
2023/03/20 01:13:20;;;;;;;;;0.00;0.00;;;;;8.20;74.37;101098.03;4996287;28;45154;-74
2023/03/20 01:15:47;;;;;;;;;0.00;0.00;;;;;8.19;74.27;101093.66;4987788;28;45557;-73
2023/03/20 01:18:15;;;;;;;;;0.00;0.00;;;;;8.16;75.09;101091.81;4997139;28;45441;-73
2023/03/20 01:20:41;;;;;;;;;1.00;0.00;;;;;8.12;75.14;101089.88;4996823;28;45415;-74
2023/03/20 01:23:07;;;;;;;;;0.50;0.00;;;;;8.13;75.58;101091.63;4989566;28;45499;-74
2023/03/20 01:25:33;;;;;;;;;0.00;0.00;;;;;8.11;75.06;101086.34;4994728;28;45539;-73
2023/03/20 01:27:59;;;;;;;;;0.00;0.00;;;;;7.95;75.70;101068.22;4996192;28;45471;-74
2023/03/20 01:30:27;;;;;;;;;0.25;0.00;;;;;8.03;75.69;101082.50;4996360;28;45578;-74
2023/03/20 01:32:55;;;;;;;;;0.00;0.00;;;;;8.06;76.02;101076.56;4996994;28;45329;-74
2023/03/20 01:35:23;;;;;;;;;0.00;0.00;;;;;8.06;75.52;101068.75;4995983;28;46158;-71
2023/03/20 01:37:50;;;;;;;;;1.00;0.25;;;;;8.17;75.58;101076.22;4996159;28;45545;-74
2023/03/20 01:40:43;;;;;;;;;0.25;0.00;;;;;8.36;75.01;101087.56;4995819;28;45568;-70
2023/03/20 01:43:15;;;;;;;;;0.00;0.00;;;;;8.45;74.59;101082.78;4993037;28;45467;-72
2023/03/20 01:46:13;;;;;;;;;0.00;0.00;;;;;8.44;74.26;101062.78;4995008;28;46391;-70
2023/03/20 01:48:51;;;;;;;;;0.00;0.00;;;;;8.52;74.08;101070.97;4995929;28;45451;-74
2023/03/20 01:51:36;;;;;;;;;0.00;0.00;;;;;8.47;73.70;101051.63;4996114;28;47221;-70
2023/03/20 01:54:25;;;;;;;;;0.00;0.00;;;;;8.50;73.72;101060.47;4997227;28;45430;-73
2023/03/20 01:56:58;;;;;;;;;0.00;0.00;;;;;8.52;73.33;101051.03;4996120;28;45978;-69
2023/03/20 01:59:30;;;;;;;;;0.00;0.00;;;;;8.49;73.33;101045.66;4996879;28;45485;-73
2023/03/20 02:01:57;;;;;;;;;0.00;0.00;;;;;8.44;74.01;101047.19;4998161;28;45566;-73
2023/03/20 02:04:28;;;;;;;;;0.00;0.00;;;;;8.41;73.97;101038.28;5000672;28;45325;-71
2023/03/20 02:06:54;;;;;;;;;0.00;0.00;;;;;8.44;73.41;101039.38;5015514;28;45383;-74
2023/03/20 02:09:19;;;;;;;;;0.00;0.00;;;;;8.44;73.41;101036.75;4999918;28;45364;-73
2023/03/20 02:11:46;;;;;;;;;0.00;0.00;;;;;8.38;73.79;101032.97;4999240;28;45415;-74
2023/03/20 02:14:14;;;;;;;;;0.00;0.00;;;;;8.39;74.04;101027.81;5000135;28;45623;-74
2023/03/20 02:16:39;;;;;;;;;0.00;0.00;;;;;8.24;74.24;101007.16;4998554;28;45383;-74
2023/03/20 02:19:10;;;;;;;;;0.75;0.00;;;;;8.27;73.96;101022.03;4999837;28;45455;-73
2023/03/20 02:21:57;;;;;;;;;0.00;0.00;;;;;8.25;74.13;101016.75;4998451;28;45380;-73
2023/03/20 02:24:28;;;;;;;;;0.00;0.00;;;;;8.17;74.98;101015.50;4999609;28;45235;-73
2023/03/20 02:27:06;;;;;;;;;0.25;0.00;;;;;8.06;74.99;101004.59;4999717;28;45637;-74
2023/03/20 02:29:41;;;;;;;;;0.00;0.00;;;;;8.15;75.00;101007.59;4999060;28;45557;-74
2023/03/20 02:32:28;;;;;;;;;0.00;0.00;;;;;8.15;74.68;101011.94;5000179;28;45418;-74
2023/03/20 02:35:31;;;;;;;;;0.00;0.00;;;;;8.10;74.93;101024.72;4998647;28;45460;-73
2023/03/20 02:38:11;;;;;;;;;0.00;0.00;;;;;8.10;75.26;101010.84;4999767;28;45423;-74
2023/03/20 02:40:50;;;;;;;;;0.00;0.00;;;;;8.08;75.10;101010.75;4999610;28;45337;-74
2023/03/20 02:43:41;;;;;;;;;1.00;0.00;;;;;8.05;75.49;101004.50;5000255;28;45380;-74
2023/03/20 02:46:33;;;;;;;;;0.00;0.00;;;;;8.03;75.49;101006.16;4999387;28;45546;-74
2023/03/20 02:49:26;;;;;;;;;1.00;0.00;;;;;7.99;75.58;100994.69;4999553;28;45359;-73
2023/03/20 02:51:57;;;;;;;;;0.25;0.25;;;;;7.88;75.78;100995.91;4999155;28;45537;-73
2023/03/20 02:54:38;;;;;;;;;0.00;0.00;;;;;7.85;75.70;101001.84;4998746;28;45456;-74
2023/03/20 02:57:11;;;;;;;;;0.00;0.00;;;;;7.85;75.38;101003.56;4998475;28;45397;-74
2023/03/20 02:59:40;;;;;;;;;0.00;0.00;;;;;7.73;76.03;101003.84;4998909;28;46127;-74
2023/03/20 03:02:27;;;;;;;;;0.00;0.00;;;;;7.57;76.61;100989.22;4998533;28;45440;-74
2023/03/20 03:04:58;;;;;;;;;1.00;0.00;;;;;7.56;77.05;100997.84;4999587;28;45324;-74
2023/03/20 03:07:30;;;;;;;;;0.00;0.00;;;;;7.51;77.16;101000.19;4998011;28;45460;-74
2023/03/20 03:10:01;;;;;;;;;0.75;0.00;;;;;7.48;78.10;100991.34;4998818;28;46194;-74
2023/03/20 03:12:33;;;;;;;;;0.00;0.00;;;;;7.44;78.36;101007.59;4998660;28;45371;-74
2023/03/20 03:15:06;;;;;;;;;0.00;0.00;;;;;7.39;77.11;100984.00;4998985;28;45375;-73
2023/03/20 03:17:36;;;;;;;;;0.75;0.75;;;;;7.36;77.28;100983.84;4999132;28;45490;-74
2023/03/20 03:20:13;;;;;;;;;1.00;1.00;;;;;7.34;77.18;100975.97;4998432;28;46298;-72
2023/03/20 03:22:39;;;;;;;;;1.00;0.25;;;;;7.43;77.76;100991.13;4999267;28;45543;-74
2023/03/20 03:25:05;;;;;;;;;0.00;0.00;;;;;7.32;76.72;100964.63;4996902;28;45548;-75
2023/03/20 03:27:39;;;;;;;;;0.00;0.00;;;;;7.40;76.15;100970.22;4999479;28;45170;-75
2023/03/20 03:30:11;;;;;;;;;0.00;0.00;;;;;7.39;76.30;100986.59;4998682;28;46067;-74
2023/03/20 03:32:42;;;;;;;;;1.00;1.00;;;;;7.35;76.41;100984.66;4997476;28;45515;-74
2023/03/20 03:35:16;;;;;;;;;1.00;1.00;;;;;7.34;76.69;100980.25;4999007;28;45293;-73
2023/03/20 03:37:51;;;;;;;;;1.00;1.00;;;;;7.32;77.13;100974.09;4999218;28;45270;-73
2023/03/20 03:40:23;;;;;;;;;0.00;0.00;;;;;7.32;76.06;100976.69;4998463;28;45454;-74
2023/03/20 03:43:00;;;;;;;;;1.00;1.00;;;;;7.30;76.16;100965.34;4999189;28;45360;-74
2023/03/20 03:45:42;;;;;;;;;2.00;2.00;;;;;7.27;76.89;100970.41;4998280;28;45362;-74
2023/03/20 03:48:17;;;;;;;;;3.00;3.00;;;;;7.20;77.17;100961.38;4999111;28;45364;-70
2023/03/20 03:50:52;;;;;;;;;7.50;6.75;;;;;7.15;76.91;100958.56;4997434;28;46230;-74
2023/03/20 03:53:24;;;;;;;;;1.00;1.00;;;;;7.13;76.34;100969.72;4998487;28;45618;-73
2023/03/20 03:55:55;;;;;;;;;1.00;0.00;;;;;7.15;76.00;100965.47;4998457;28;45502;-75
2023/03/20 03:58:35;;;;;;;;;1.00;1.00;;;;;7.12;76.52;100970.50;4998998;28;45545;-74
2023/03/20 04:01:03;;;;;;;;;0.00;0.00;;;;;7.11;76.88;100959.22;4997864;28;46027;-73
2023/03/20 04:03:36;;;;;;;;;1.00;1.00;;;;;7.01;77.95;100963.88;4997692;28;45234;-74
2023/03/20 04:06:05;;;;;;;;;1.00;0.50;;;;;6.99;76.72;100955.13;4998062;28;45569;-74
2023/03/20 04:08:30;;;;;;;;;1.00;1.00;;;;;6.97;77.12;100958.53;4998600;28;45324;-73
2023/03/20 04:10:56;;;;;;;;;0.50;0.00;;;;;6.91;78.24;100947.81;4997627;28;46212;-74
2023/03/20 04:13:22;;;;;;;;;0.50;0.00;;;;;6.80;78.38;100936.00;4998349;28;45313;-74
2023/03/20 04:15:47;;;;;;;;;1.00;1.00;;;;;6.87;78.50;100942.41;4997772;28;45443;-74
2023/03/20 04:18:18;;;;;;;;;1.00;0.25;;;;;6.91;78.01;100936.56;4998284;28;45211;-74
2023/03/20 04:20:45;;;;;;;;;1.00;0.00;;;;;6.91;78.29;100944.34;4997804;28;45559;-74
2023/03/20 04:23:11;;;;;;;;;1.00;1.00;;;;;6.92;78.14;100935.72;4998293;28;45333;-74
2023/03/20 04:25:37;;;;;;;;;3.00;2.00;;;;;6.95;77.94;100938.50;4997206;28;45355;-74
2023/03/20 04:28:03;;;;;;;;;3.00;2.00;;;;;6.88;78.67;100924.28;4997660;28;45498;-73
2023/03/20 04:30:28;;;;;;;;;2.25;2.00;;;;;6.91;78.02;100926.16;4992663;28;46233;-73
2023/03/20 04:32:54;;;;;;;;;3.50;2.50;;;;;6.95;78.95;100939.38;4993506;28;45359;-73
2023/03/20 04:35:20;;;;;;;;;1.50;1.50;;;;;6.96;78.39;100948.97;4997406;28;45505;-74
2023/03/20 04:37:45;;;;;;;;;1.00;1.00;;;;;6.96;78.78;100938.56;4997802;28;45507;-73
2023/03/20 04:40:12;;;;;;;;;0.25;0.00;;;;;6.96;77.42;100946.38;4998011;28;46165;-74
2023/03/20 04:42:37;;;;;;;;;0.75;0.75;;;;;6.96;77.42;100938.56;4997591;28;45499;-74
2023/03/20 04:45:04;;;;;;;;;1.00;0.00;;;;;6.99;76.99;100944.75;4997308;28;46070;-74
2023/03/20 04:47:30;;;;;;;;;0.75;0.75;;;;;6.91;77.09;100927.06;4998545;28;45155;-74
2023/03/20 04:49:55;;;;;;;;;1.00;1.00;;;;;6.95;77.19;100938.50;5004365;28;45313;-73
2023/03/20 04:52:21;;;;;;;;;1.00;1.00;;;;;6.94;77.12;100935.00;5009408;28;45301;-73
2023/03/20 04:54:46;;;;;;;;;2.00;1.50;;;;;6.95;77.32;100936.78;5009812;28;45363;-75
2023/03/20 04:57:12;;;;;;;;;0.50;0.50;;;;;6.77;76.94;100918.56;5007863;28;44798;-73
2023/03/20 04:59:38;;;;;;;;;1.00;1.00;;;;;6.83;77.22;100933.56;5008222;28;46097;-74
2023/03/20 05:02:04;;;;;;;;;1.25;1.00;;;;;6.82;77.36;100934.34;5005365;28;45266;-74
2023/03/20 05:04:29;;;;;;;;;1.00;1.00;;;;;6.82;77.38;100930.88;4999523;28;45403;-74
2023/03/20 05:06:55;;;;;;;;;0.25;0.00;;;;;6.82;77.55;100926.56;4998836;28;45505;-74
2023/03/20 05:09:21;;;;;;;;;2.25;2.00;;;;;6.83;76.91;100933.56;4999388;28;46112;-73
2023/03/20 05:11:46;;;;;;;;;1.00;1.00;;;;;6.84;76.32;100935.31;4997339;28;45372;-74
2023/03/20 05:14:12;;;;;;;;;1.00;1.00;;;;;6.83;76.72;100937.88;4997021;28;45472;-74
2023/03/20 05:16:38;;;;;;;;;3.00;2.25;;;;;6.81;76.39;100930.00;4995117;28;45879;-73
2023/03/20 05:19:04;;;;;;;;;4.25;3.00;;;;;6.79;76.94;100930.75;4996775;28;45427;-74
2023/03/20 05:21:29;;;;;;;;;2.25;1.00;;;;;6.78;76.98;100927.22;4995923;28;45471;-73
2023/03/20 05:23:55;;;;;;;;;1.75;1.00;;;;;6.77;77.28;100920.28;4996032;28;45482;-72
2023/03/20 05:26:20;;;;;;;;;1.25;1.25;;;;;6.74;76.33;100926.22;4995352;28;45585;-73
2023/03/20 05:28:46;;;;;;;;;1.00;1.00;;;;;6.70;76.58;100925.94;4996549;28;45552;-74
2023/03/20 05:31:12;;;;;;;;;0.00;0.00;;;;;6.68;76.67;100919.78;4996146;28;45436;-74
2023/03/20 05:33:37;;;;;;;;;1.00;0.75;;;;;6.66;76.75;100913.63;5003245;28;45826;-74
2023/03/20 05:36:03;;;;;;;;;1.50;1.00;;;;;6.66;77.42;100911.91;4997487;28;45283;-73
2023/03/20 05:38:29;;;;;;;;;1.00;1.00;;;;;6.59;77.73;100911.53;4998323;28;45391;-72
2023/03/20 05:41:01;;;;;;;;;1.00;0.50;;;;;6.51;78.04;100904.25;5006438;28;45441;-72
2023/03/20 05:43:27;;;;;;;;;0.00;0.00;;;;;6.47;78.08;100910.09;5005707;28;45569;-73
2023/03/20 05:45:55;;;;;;;;;1.00;1.00;;;;;6.43;78.34;100909.84;5004453;28;46409;-73
2023/03/20 05:48:21;;;;;;;;;1.50;1.00;;;;;6.37;78.25;100903.50;4996290;28;45532;-74
2023/03/20 05:50:46;;;;;;;;;1.00;1.00;;;;;6.35;78.29;100905.13;4985868;28;45545;-73
2023/03/20 05:53:12;;;;;;;;;1.00;1.00;;;;;6.30;79.80;100892.72;5001902;28;45317;-74
2023/03/20 05:55:37;;;;;;;;;7.25;7.00;;;;;6.23;79.20;100885.41;4995947;28;45457;-73
2023/03/20 05:58:04;;;;;;;;;5.50;5.00;;;;;6.30;80.49;100900.50;4995283;28;45859;-74
2023/03/20 06:00:29;;;;;;;;;5.00;5.00;;;;;6.34;79.70;100905.06;4995741;28;45559;-72
2023/03/20 06:02:55;;;;;;;;;5.50;5.50;;;;;6.36;79.36;100900.84;4995121;28;45283;-74
2023/03/20 06:05:20;;;;;;;;;5.00;3.00;;;;;6.42;79.56;100910.66;4996538;28;45408;-74
2023/03/20 06:07:46;;;;;;;;;5.00;4.00;;;;;6.44;79.25;100901.25;4994674;28;46231;-74
2023/03/20 06:10:12;;;;;;;;;5.50;5.50;;;;;6.38;79.93;100892.31;4995680;28;47083;-74
2023/03/20 06:12:37;;;;;;;;;7.00;3.50;;;;;6.45;78.44;100906.50;4995019;28;45540;-74
2023/03/20 06:15:04;;;;;;;;;5.75;5.25;;;;;6.47;78.03;100899.69;4995948;28;45535;-73
2023/03/20 06:17:29;;;;;;;;;3.50;3.00;;;;;6.51;77.57;100898.16;4995064;28;46254;-70
2023/03/20 06:19:55;;;;;;;;;1.50;1.50;;;;;6.54;77.35;100901.78;4994957;28;45420;-73
2023/03/20 06:22:20;;;;;;;;;3.00;3.00;;;;;6.51;77.44;100878.28;4999147;28;45397;-71
2023/03/20 06:24:46;;;;;;;;;9.25;7.25;;;;;6.67;77.04;100899.84;4998652;28;45423;-73
2023/03/20 06:27:12;;;;;;;;;8.00;6.50;;;;;6.74;77.25;100902.84;4998828;28;46051;-73
2023/03/20 06:29:37;;;;;;;;;6.50;6.00;;;;;6.82;77.14;100910.09;4996902;28;45630;-73
2023/03/20 06:32:05;;;;;;;;;7.00;7.00;;;;;6.81;77.23;100888.44;5001449;28;45793;-73
2023/03/20 06:34:31;;;;;;;;;2.75;2.75;;;;;6.93;75.94;100909.84;4998258;28;45437;-74
2023/03/20 06:36:56;;;;;;;;;4.00;3.00;;;;;6.93;75.51;100906.34;5008786;28;45499;-74
2023/03/20 06:39:22;;;;;;;;;3.00;3.00;;;;;7.01;75.90;100911.94;5003703;28;45471;-74
2023/03/20 06:41:47;;;;;;;;;3.75;3.75;;;;;7.04;75.84;100912.97;5004794;28;45606;-75
2023/03/20 06:44:13;;;;;;;;;6.00;4.75;;;;;7.12;75.67;100918.53;5003148;28;45480;-74
2023/03/20 06:46:38;;;;;;;;;3.00;3.00;;;;;7.12;75.34;100909.06;5003688;28;45537;-75
2023/03/20 06:49:04;;;;;;;;;5.50;5.50;;;;;7.19;75.72;100902.47;5007410;28;45305;-74
2023/03/20 06:51:29;;;;;;;;;7.50;3.75;;;;;7.36;75.37;100913.66;5012961;28;45494;-70
2023/03/20 06:53:55;;;;;;;;;6.75;6.00;;;;;7.46;75.13;100917.59;5009091;28;45467;-74
2023/03/20 06:56:20;;;;;;;;;13.00;12.00;;;;;7.48;75.31;100900.38;5007684;28;45482;-74
2023/03/20 06:58:46;;;;;;;;;9.25;8.75;;;;;7.70;75.64;100917.88;5001513;28;45471;-75
2023/03/20 07:01:15;;;;;;;;;7.00;7.00;;;;;7.82;74.80;100917.56;5008143;28;45419;-74
2023/03/20 07:03:41;;;;;;;;;5.75;4.50;;;;;7.96;74.42;100912.22;5006012;28;45549;-71
2023/03/20 07:06:07;;;;;;;;;5.50;5.00;;;;;8.13;74.13;100904.28;5015786;28;47087;-73
2023/03/20 07:08:33;;;;;;;;;2.00;2.00;;;;;8.36;73.82;100902.72;5008173;28;45390;-74
2023/03/20 07:11:00;;;;;;;;;3.50;3.25;;;;;8.59;72.92;100895.06;5001855;28;45319;-74
2023/03/20 07:13:27;;;;;;;;;7.25;7.00;;;;;9.39;72.19;100885.34;5007820;28;45526;-75
2023/03/20 07:15:53;;;;;;;;;8.25;8.00;;;;;11.25;67.43;100892.16;5004278;28;46447;-75
2023/03/20 07:18:19;;;;;;;;;13.00;12.00;;;;;13.23;62.27;100881.22;5006473;28;45343;-74
2023/03/20 07:20:45;;;;;;;;;15.25;14.25;;;;;14.33;57.71;100880.22;5007177;28;45479;-73
2023/03/20 07:23:10;;;;;;;;;13.00;13.00;;;;;14.53;55.31;100881.47;5008107;28;45329;-70
2023/03/20 07:25:36;;;;;;;;;9.00;9.00;;;;;14.73;54.35;100867.84;5006361;28;46402;-73
2023/03/20 07:28:02;;;;;;;;;5.75;5.00;;;;;15.34;53.04;100885.53;5005843;28;45580;-74
2023/03/20 07:30:27;;;;;;;;;3.00;3.00;;;;;16.04;50.86;100876.06;5001215;28;45736;-74
2023/03/20 07:32:53;;;;;;;;;4.00;4.00;;;;;16.37;51.65;100879.06;5006669;28;45629;-71
2023/03/20 07:35:19;;;;;;;;;5.00;5.00;;;;;16.74;49.52;100874.22;5001770;28;45595;-75
2023/03/20 07:37:44;;;;;;;;;8.75;8.50;;;;;17.34;47.25;100882.69;5000007;28;45413;-75
2023/03/20 07:40:10;;;;;;;;;32.00;31.00;;;;;17.41;47.86;100868.66;4999700;28;45691;-74
2023/03/20 07:42:36;;;;;;;;;6.00;5.00;;;;;17.77;47.48;100875.06;5005322;28;45553;-73
2023/03/20 07:45:02;;;;;;;;;2.75;2.75;;;;;18.24;46.92;100892.91;5007028;28;46206;-75
2023/03/20 07:47:27;;;;;;;;;4.25;4.25;;;;;18.55;45.51;100891.28;5006215;28;45380;-75
2023/03/20 07:49:53;;;;;;;;;3.00;3.00;;;;;19.09;43.76;100883.44;5008042;28;45479;-75
2023/03/20 07:52:18;;;;;;;;;3.33;3.00;;;;;19.57;43.23;100881.63;5003339;28;46026;-73
2023/03/20 07:54:44;;;;;;;;;3.00;3.00;;;;;20.42;43.06;100871.66;4999240;28;47072;-75
2023/03/20 07:57:09;;;;;;;;;3.00;2.33;;;;;21.09;40.83;100865.91;4999176;28;45365;-74
2023/03/20 07:59:35;;;;;;;;;0.00;0.00;;;;;21.09;40.13;100865.91;5005676;28;45344;-75
2023/03/20 08:02:00;;;;;;;;;5.00;5.00;;;;;21.00;38.98;100865.09;5011235;28;45349;-75
2023/03/20 08:04:26;;;;;;;;;7.00;6.00;;;;;21.10;39.46;100860.59;5006407;28;45413;-75
2023/03/20 08:06:52;;;;;;;;;4.00;4.00;;;;;21.25;40.07;100857.81;5004722;28;45479;-74
2023/03/20 08:09:18;;;;;;;;;3.00;3.00;;;;;21.59;38.16;100857.53;5006451;28;45339;-73
2023/03/20 08:11:44;;;;;;;;;3.00;3.00;;;;;22.04;38.98;100857.91;5003996;28;45545;-75
2023/03/20 08:14:10;;;;;;;;;4.00;4.00;;;;;22.50;37.36;100851.13;4998760;28;46066;-75
2023/03/20 08:16:35;;;;;;;;;1.67;1.67;;;;;22.64;35.42;100845.56;4998933;28;45420;-76
2023/03/20 08:19:02;;;;;;;;;1.33;1.33;;;;;22.84;36.46;100839.94;4999376;28;45435;-71
2023/03/20 08:21:28;;;;;;;;;2.33;2.00;;;;;22.35;37.41;100851.31;5013112;28;45499;-71
2023/03/20 08:23:54;;;;;;;;;2.00;2.00;;;;;22.36;36.50;100843.31;4992838;28;46320;-75
2023/03/20 08:26:20;;;;;;;;;1.00;1.00;;;;;22.92;37.79;100850.47;5020566;28;45234;-74
2023/03/20 08:28:46;;;;;;;;;2.00;2.00;;;;;23.89;35.28;100846.97;4996540;28;45391;-74
2023/03/20 08:31:11;;;;;;;;;3.00;3.00;;;;;24.55;32.61;100850.03;4997110;28;45466;-74
2023/03/20 08:33:37;;;;;;;;;6.00;5.33;;;;;24.54;32.50;100837.63;4996112;28;45446;-75
2023/03/20 08:36:03;;;;;;;;;1.00;1.00;;;;;24.29;32.71;100838.16;4995389;28;45507;-73
2023/03/20 08:38:28;;;;;;;;;1.00;1.00;;;;;23.87;33.56;100842.59;4996766;28;45537;-72
2023/03/20 08:40:54;;;;;;;;;1.00;1.00;;;;;24.14;34.01;100830.47;4995931;28;45477;-75
2023/03/20 08:43:20;;;;;;;;;2.33;2.00;;;;;24.15;33.76;100843.78;4996925;28;45526;-75
2023/03/20 08:45:46;;;;;;;;;2.67;2.00;;;;;23.99;35.58;100845.00;4996313;28;45443;-74
2023/03/20 08:48:12;;;;;;;;;1.00;1.00;;;;;24.45;34.14;100830.63;4989928;28;45502;-74
2023/03/20 08:50:38;;;;;;;;;1.00;1.00;;;;;24.29;34.74;100845.25;4996698;28;45479;-72
2023/03/20 08:53:05;;;;;;;;;1.67;1.67;;;;;24.58;32.70;100834.81;4995625;28;46029;-74
2023/03/20 08:55:31;;;;;;;;;2.67;1.67;;;;;24.92;33.43;100841.16;4996331;28;45459;-74
2023/03/20 08:57:57;;;;;;;;;1.00;1.00;;;;;24.84;33.15;100832.47;4997245;28;46336;-74
2023/03/20 09:00:23;;;;;;;;;2.00;2.00;;;;;24.89;32.86;100827.84;4996189;28;45806;-73
2023/03/20 09:02:49;;;;;;;;;2.00;2.00;;;;;25.16;33.97;100824.47;4996542;28;46264;-73
2023/03/20 09:05:15;;;;;;;;;1.00;1.00;;;;;25.62;33.58;100824.19;4995763;28;45338;-74
2023/03/20 09:07:42;;;;;;;;;2.00;2.00;;;;;25.91;31.65;100826.97;4993567;28;45459;-74
2023/03/20 09:10:08;;;;;;;;;3.00;3.00;;;;;26.03;31.69;100816.81;4999480;28;45638;-74
2023/03/20 09:12:34;;;;;;;;;1.00;1.00;;;;;25.92;32.51;100803.75;4996399;28;45617;-74
2023/03/20 09:15:01;;;;;;;;;2.00;1.00;;;;;26.32;32.15;100811.47;5006094;28;45520;-75
2023/03/20 09:17:26;;;;;;;;;1.00;1.00;;;;;26.97;30.95;100814.75;5007551;28;45577;-76
2023/03/20 09:19:52;;;;;;;;;0.67;0.67;;;;;27.43;30.58;100804.25;5002910;28;45497;-77
2023/03/20 09:22:18;;;;;;;;;1.33;1.33;;;;;27.40;29.76;100815.06;5006378;28;45462;-78
2023/03/20 09:24:44;;;;;;;;;1.00;0.00;;;;;26.61;30.24;100808.81;5006627;28;45572;-77
2023/03/20 09:27:12;;;;;;;;;0.00;0.00;;;;;26.79;31.47;100811.75;4997134;28;45442;-77
2023/03/20 09:29:39;;;;;;;;;1.00;1.00;;;;;27.46;30.87;100812.19;4996987;28;45325;-75
2023/03/20 09:32:04;;;;;;;;;1.00;1.00;;;;;27.25;29.90;100813.81;4996683;28;45392;-77
2023/03/20 09:34:30;;;;;;;;;1.00;1.00;;;;;27.55;29.76;100820.75;4996620;28;45356;-78
2023/03/20 09:36:56;;;;;;;;;1.00;1.00;;;;;27.55;30.40;100818.06;4996721;28;45427;-77
2023/03/20 09:39:22;;;;;;;;;1.00;1.00;;;;;27.52;31.18;100820.88;4994983;28;45679;-76
2023/03/20 09:41:49;;;;;;;;;1.00;1.00;;;;;27.39;30.55;100808.84;5002064;28;45478;-77
2023/03/20 09:44:36;;;;;;;;;3.00;3.00;;;;;27.79;31.75;100812.75;5003448;28;45463;-77
2023/03/20 09:47:09;;;;;;;;;2.00;2.00;;;;;28.05;29.88;100809.09;5005399;28;45365;-77
2023/03/20 09:49:52;;;;;;;;;2.00;2.00;;;;;28.26;30.15;100811.91;5004771;28;45561;-75
2023/03/20 09:52:28;;;;;;;;;0.67;0.67;;;;;28.05;29.81;100808.22;5000704;28;46336;-78
2023/03/20 09:54:57;;;;;;;;;2.00;1.00;;;;;27.81;30.54;100810.88;5004745;28;45481;-75
2023/03/20 09:57:25;;;;;;;;;0.67;0.67;;;;;27.45;31.14;100811.28;5006387;28;45383;-75
2023/03/20 10:00:00;;;;;;;;;0.67;0.67;;;;;27.21;30.32;100804.97;5001900;28;45311;-77
2023/03/20 10:02:57;;;;;;;;;1.00;1.00;;;;;27.37;31.23;100808.00;4995868;28;46076;-77
2023/03/20 10:05:28;;;;;;;;;1.00;1.00;;;;;27.23;29.53;100815.66;4993409;28;45611;-77
2023/03/20 10:07:59;;;;;;;;;1.00;1.00;;;;;27.14;30.71;100809.69;4996972;28;45431;-77
2023/03/20 10:10:40;;;;;;;;;1.33;1.33;;;;;26.88;30.29;100805.22;4996695;28;45550;-77
2023/03/20 10:13:37;;;;;;;;;1.00;1.00;;;;;26.95;31.07;100798.69;4996689;28;46308;-77
2023/03/20 10:16:33;;;;;;;;;1.00;1.00;;;;;27.37;29.95;100795.47;4996958;28;45550;-73
2023/03/20 10:19:27;;;;;;;;;1.67;1.00;;;;;27.03;30.66;100787.72;4995341;28;45394;-76
2023/03/20 10:22:31;;;;;;;;;1.33;1.33;;;;;26.99;31.03;100780.72;4996691;28;45371;-76
2023/03/20 10:25:12;;;;;;;;;5.00;4.67;;;;;26.80;31.78;100780.47;5000005;28;45978;-74
2023/03/20 10:28:16;;;;;;;;;2.00;1.33;;;;;27.02;31.80;100775.25;4999877;28;45526;-74
2023/03/20 10:31:01;;;;;;;;;9.33;8.33;;;;;26.71;31.85;100775.41;4987743;28;45488;-78
2023/03/20 10:33:47;;;;;;;;;3.00;3.00;;;;;26.62;32.08;100775.72;5000026;28;45276;-71
2023/03/20 10:36:28;;;;;;;;;2.00;2.00;;;;;26.75;31.68;100772.56;4998368;28;45467;-72
2023/03/20 10:39:03;;;;;;;;;2.00;2.00;;;;;26.54;31.58;100765.19;4998428;28;45498;-71
2023/03/20 10:41:33;;;;;;;;;0.00;0.00;;;;;26.81;32.32;100766.13;4999991;28;45296;-70
2023/03/20 10:44:01;;;;;;;;;1.00;1.00;;;;;27.15;31.97;100763.16;4999365;28;45448;-70
2023/03/20 10:46:32;;;;;;;;;0.67;0.67;;;;;27.26;31.31;100743.16;5005407;28;46628;-74
2023/03/20 10:49:07;;;;;;;;;1.00;1.00;;;;;26.92;32.20;100749.69;5008879;28;45442;-73
2023/03/20 10:51:48;;;;;;;;;1.00;1.00;;;;;26.90;31.28;100749.75;5007235;28;45453;-73
2023/03/20 10:54:40;;;;;;;;;2.00;2.00;;;;;26.81;31.74;100752.72;5007392;28;45481;-75
2023/03/20 10:57:14;;;;;;;;;0.00;0.00;;;;;26.78;31.85;100752.84;5003774;28;46191;-73
2023/03/20 10:59:50;;;;;;;;;1.00;1.00;;;;;26.59;32.26;100749.91;4999356;28;45317;-74
2023/03/20 11:02:18;;;;;;;;;0.00;0.00;;;;;26.70;31.72;100752.22;5001346;28;45530;-73
2023/03/20 11:04:45;;;;;;;;;0.67;0.00;;;;;26.42;32.47;100745.03;5007751;28;45518;-71
2023/03/20 11:07:22;;;;;;;;;1.00;0.67;;;;;26.25;32.05;100742.94;5009122;28;45479;-73
2023/03/20 11:10:21;;;;;;;;;26.50;26.25;;;;;26.26;32.38;100746.47;5007447;28;45542;-74
2023/03/20 11:12:48;;;;;;;;;0.67;0.67;;;;;25.98;31.88;100724.16;5009426;28;45189;-74
2023/03/20 11:15:32;;;;;;;;;2.00;0.00;;;;;25.96;32.50;100725.09;5008632;28;45448;-72
2023/03/20 11:18:03;;;;;;;;;1.00;1.00;;;;;26.12;31.82;100720.13;5008812;28;45646;-71
2023/03/20 11:20:36;;;;;;;;;0.00;0.00;;;;;26.05;32.55;100708.75;4998061;28;45373;-73
2023/03/20 11:23:09;;;;;;;;;1.00;0.67;;;;;26.04;32.36;100717.69;5014259;28;45514;-74
2023/03/20 11:25:46;;;;;;;;;1.00;1.00;;;;;26.02;31.96;100714.19;5008966;28;45305;-75
2023/03/20 11:28:19;;;;;;;;;1.00;1.00;;;;;25.76;32.73;100723.00;5007967;28;45425;-73
2023/03/20 11:30:46;;;;;;;;;0.00;0.00;;;;;25.64;32.86;100715.34;5006976;28;45320;-73
2023/03/20 11:33:14;;;;;;;;;0.00;0.00;;;;;25.67;33.04;100712.59;5007151;28;45451;-73
2023/03/20 11:35:44;;;;;;;;;1.00;1.00;;;;;25.42;31.89;100701.72;5006375;28;45471;-72
2023/03/20 11:38:19;;;;;;;;;1.00;1.00;;;;;24.97;31.72;100705.63;5007306;28;46078;-73
2023/03/20 11:40:48;;;;;;;;;1.00;1.00;;;;;24.83;33.97;100703.34;5006897;28;45454;-72
2023/03/20 11:43:22;;;;;;;;;0.00;0.00;;;;;24.72;33.48;100702.72;5008119;28;45356;-73